Time;durP1;ratioP1;P1;durP2;ratioP2;P2;SDS_P1;SDS_P2;PMS_P1;PMS_P2;Temp;Humidity;BMP_temperature;BMP_pressure;BME280_temperature;BME280_humidity;BME280_pressure;Samples;Min_cycle;Max_cycle;Signal;HPM_P1;HPM_P2
2021/03/27 00:01:43;;;;;;;46.80;27.05;;;;;;;3.35;70.70;101286.62;1817941;79;21404;-75
2021/03/27 00:04:16;;;;;;;42.67;24.63;;;;;;;3.34;70.87;101284.93;1818066;79;21443;-76
2021/03/27 00:06:58;;;;;;;40.12;23.47;;;;;;;3.32;71.03;101287.54;1828887;78;21454;-76
2021/03/27 00:09:37;;;;;;;43.42;25.45;;;;;;;3.32;71.04;101287.09;1832872;77;21029;-75
2021/03/27 00:12:38;;;;;;;41.80;24.20;;;;;;;3.34;71.18;101293.55;1805960;78;20991;-75
2021/03/27 00:15:33;;;;;;;48.02;25.62;;;;;;;3.39;71.17;101290.87;1833066;78;21340;-74
2021/03/27 00:18:27;;;;;;;40.83;23.20;;;;;;;3.42;70.97;101293.39;1832514;78;20937;-76
2021/03/27 00:21:04;;;;;;;40.40;24.80;;;;;;;3.44;70.99;101290.33;1832385;77;21021;-75
2021/03/27 00:23:57;;;;;;;35.80;22.77;;;;;;;3.44;70.82;101293.77;1832361;78;20926;-75
2021/03/27 00:26:36;;;;;;;41.08;24.12;;;;;;;3.42;70.80;101289.50;1832359;78;21061;-74
2021/03/27 00:29:13;;;;;;;43.95;24.23;;;;;;;3.36;70.66;101293.08;1832320;78;20974;-74
2021/03/27 00:31:49;;;;;;;38.90;21.93;;;;;;;3.32;70.80;101287.54;1816514;78;21001;-74
2021/03/27 00:34:19;;;;;;;35.20;21.00;;;;;;;3.28;70.95;101290.62;1832295;77;21412;-74
2021/03/27 00:36:54;;;;;;;32.10;21.33;;;;;;;3.25;71.12;101285.95;1832274;78;20946;-75
2021/03/27 00:39:33;;;;;;;35.20;20.72;;;;;;;3.25;71.41;101289.84;1805077;78;21045;-76
2021/03/27 00:42:05;;;;;;;34.53;20.60;;;;;;;3.27;71.73;101290.67;1812229;79;20954;-76
2021/03/27 00:44:39;;;;;;;42.98;21.48;;;;;;;3.34;71.80;101286.22;1812317;79;20959;-76
2021/03/27 00:47:11;;;;;;;39.48;22.35;;;;;;;3.40;71.71;101283.48;1812735;78;21362;-76
2021/03/27 00:49:45;;;;;;;44.05;23.65;;;;;;;3.47;71.52;101280.77;1812675;78;21564;-74
2021/03/27 00:52:16;;;;;;;44.98;25.88;;;;;;;3.53;71.24;101281.94;1811316;79;20959;-75
2021/03/27 00:55:03;;;;;;;36.15;22.62;;;;;;;3.57;71.05;101289.65;1812777;78;21452;-74
2021/03/27 00:57:39;;;;;;;43.95;24.35;;;;;;;3.59;70.85;101284.84;1812752;79;20942;-74
2021/03/27 01:00:30;;;;;;;33.20;21.65;;;;;;;3.59;70.73;101284.84;1812733;78;21370;-75
2021/03/27 01:03:07;;;;;;;40.63;22.73;;;;;;;3.62;70.69;101286.06;1789529;79;20935;-73
2021/03/27 01:05:55;;;;;;;36.15;21.05;;;;;;;3.65;70.60;101289.06;1813872;79;20951;-73
2021/03/27 01:08:39;;;;;;;35.33;21.62;;;;;;;3.67;70.51;101291.19;1791992;79;21451;-72
2021/03/27 01:11:32;;;;;;;35.20;19.62;;;;;;;3.70;70.59;101292.41;1817335;79;21376;-74
2021/03/27 01:14:11;;;;;;;35.95;20.25;;;;;;;3.76;70.57;101287.52;1788266;79;21508;-75
2021/03/27 01:16:45;;;;;;;37.30;21.30;;;;;;;3.82;70.41;101287.39;1817227;79;20938;-74
2021/03/27 01:19:34;;;;;;;37.33;22.65;;;;;;;3.88;70.33;101290.71;1817299;79;20895;-76
2021/03/27 01:22:05;;;;;;;43.80;22.13;;;;;;;3.91;70.30;101288.07;1817239;77;20903;-75
2021/03/27 01:24:33;;;;;;;41.92;24.10;;;;;;;3.92;70.06;101288.92;1817370;78;20927;-76
2021/03/27 01:27:17;;;;;;;42.90;24.85;;;;;;;3.91;69.95;101285.89;1817240;78;21487;-76
2021/03/27 01:30:03;;;;;;;42.67;24.37;;;;;;;3.90;69.89;101289.39;1817221;79;20946;-75
2021/03/27 01:32:45;;;;;;;47.90;29.12;;;;;;;3.89;69.90;101293.73;1817390;79;20922;-75
2021/03/27 01:35:40;;;;;;;38.38;24.92;;;;;;;3.89;69.81;101287.66;1817366;79;21526;-75
2021/03/27 01:38:13;;;;;;;28.62;17.80;;;;;;;3.88;69.83;101284.67;1817602;79;20990;-74
2021/03/27 01:40:50;;;;;;;35.28;19.17;;;;;;;3.89;69.84;101291.14;1817353;79;21462;-74
2021/03/27 01:43:35;;;;;;;33.80;16.80;;;;;;;3.90;70.03;101295.88;1817288;79;20919;-76
2021/03/27 01:46:31;;;;;;;32.88;17.77;;;;;;;3.94;69.86;101293.63;1817409;78;21037;-74
2021/03/27 01:49:42;;;;;;;36.10;18.27;;;;;;;3.98;69.77;101293.98;1817367;79;21457;-75
2021/03/27 01:52:40;;;;;;;32.10;16.85;;;;;;;4.00;69.68;101299.95;1817386;77;21591;-74
2021/03/27 01:55:45;;;;;;;29.42;16.55;;;;;;;3.96;69.76;101304.83;1817359;78;21192;-74
2021/03/27 01:58:23;;;;;;;25.40;14.58;;;;;;;3.93;69.81;101301.87;1817219;78;20950;-74
2021/03/27 02:00:59;;;;;;;24.70;14.58;;;;;;;3.91;69.83;101307.53;1764408;79;20935;-75
2021/03/27 02:03:35;;;;;;;26.77;16.62;;;;;;;3.88;69.87;101311.47;1817271;78;20955;-75
2021/03/27 02:06:24;;;;;;;25.20;15.32;;;;;;;3.88;69.86;101306.73;1816382;79;20959;-74
2021/03/27 02:09:10;;;;;;;27.07;15.28;;;;;;;3.88;69.86;101317.95;1812687;78;21456;-74
2021/03/27 02:12:12;;;;;;;28.85;16.60;;;;;;;3.88;69.95;101307.58;1812596;79;20904;-74
2021/03/27 02:14:54;;;;;;;28.38;14.80;;;;;;;3.91;70.02;101314.02;1793481;80;20890;-75
2021/03/27 02:17:48;;;;;;;26.35;14.40;;;;;;;3.96;70.09;101311.32;1812715;79;21481;-75
2021/03/27 02:20:49;;;;;;;20.03;13.90;;;;;;;4.02;70.03;101313.76;1793776;78;21008;-74
2021/03/27 02:23:39;;;;;;;27.82;15.72;;;;;;;4.12;69.76;101306.20;1847775;75;22710;-76
2021/03/27 02:26:48;;;;;;;19.98;13.62;;;;;;;4.09;69.55;101312.77;1818007;79;20962;-72
2021/03/27 02:29:49;;;;;;;22.75;14.40;;;;;;;4.10;69.52;101311.02;1817988;78;22358;-73
2021/03/27 02:32:43;;;;;;;23.02;14.45;;;;;;;4.08;69.52;101316.23;1818089;78;21053;-74
2021/03/27 02:35:38;;;;;;;20.80;15.57;;;;;;;4.07;69.44;101318.84;1787326;79;20934;-73
2021/03/27 02:38:30;;;;;;;21.17;13.25;;;;;;;4.03;69.45;101319.38;1818048;79;21022;-73
2021/03/27 02:41:27;;;;;;;24.35;14.98;;;;;;;4.01;69.47;101319.00;1818011;79;21017;-75
2021/03/27 02:44:10;;;;;;;19.70;13.60;;;;;;;3.99;69.56;101319.48;1817969;79;21804;-75
2021/03/27 02:46:44;;;;;;;20.77;12.73;;;;;;;3.98;69.84;101319.93;1817944;79;20950;-74
2021/03/27 02:49:34;;;;;;;21.30;13.90;;;;;;;3.99;70.03;101322.92;1790472;79;20939;-74
2021/03/27 02:52:51;;;;;;;24.82;13.95;;;;;;;4.02;70.09;101325.44;1818078;79;20946;-74
2021/03/27 02:55:31;;;;;;;;;;;;;;;4.06;69.99;101323.64;1797456;79;21447;-74
2021/03/27 02:58:23;;;;;;;24.63;13.88;;;;;;;4.10;69.78;101323.99;1818230;78;22383;-74
2021/03/27 03:01:00;;;;;;;23.30;13.58;;;;;;;4.10;69.68;101327.89;1818045;79;20998;-75
2021/03/27 03:03:57;;;;;;;29.90;15.32;;;;;;;4.07;69.66;101321.02;1818089;78;20982;-78
2021/03/27 03:06:54;;;;;;;20.65;12.93;;;;;;;4.04;69.50;101321.07;1817957;79;21033;-74
2021/03/27 03:10:02;;;;;;;23.27;14.65;;;;;;;3.99;69.54;101325.52;1817649;78;20926;-73
2021/03/27 03:12:41;;;;;;;21.10;14.90;;;;;;;3.91;69.64;101324.81;1818132;79;22110;-75
2021/03/27 03:15:41;;;;;;;23.92;15.15;;;;;;;3.87;69.74;101329.23;1789250;79;21026;-73
2021/03/27 03:18:30;;;;;;;25.72;14.45;;;;;;;3.84;69.82;101323.24;1817997;79;21412;-73
2021/03/27 03:21:06;;;;;;;23.42;14.90;;;;;;;3.82;70.00;101332.80;1817971;78;20982;-72
2021/03/27 03:23:42;;;;;;;23.55;14.43;;;;;;;3.79;70.26;101328.53;1829803;77;21120;-74
2021/03/27 03:26:43;;;;;;;24.00;16.00;;;;;;;3.80;70.35;101339.75;1830558;78;22126;-73
2021/03/27 03:29:35;;;;;;;23.98;15.05;;;;;;;3.82;70.32;101334.09;1829871;78;21423;-75
2021/03/27 03:32:17;;;;;;;21.70;14.45;;;;;;;3.83;70.35;101344.89;1830277;78;21471;-74
2021/03/27 03:35:15;;;;;;;23.18;15.83;;;;;;;3.82;70.44;101349.20;1829767;77;20910;-73
2021/03/27 03:38:24;;;;;;;24.00;15.35;;;;;;;3.82;70.39;101344.47;1829992;78;20918;-73
2021/03/27 03:41:10;;;;;;;21.95;14.78;;;;;;;3.81;70.37;101350.55;1829840;78;21445;-75
2021/03/27 03:44:02;;;;;;;21.85;14.13;;;;;;;3.79;70.41;101351.03;1829706;78;21017;-73
2021/03/27 03:46:41;;;;;;;23.92;14.43;;;;;;;3.78;70.43;101350.18;1829803;78;20990;-73
2021/03/27 03:49:30;;;;;;;21.93;14.58;;;;;;;3.79;70.51;101360.11;1829867;78;20997;-73
2021/03/27 03:52:06;;;;;;;20.25;14.23;;;;;;;3.79;70.60;101361.41;1829829;78;21029;-74
2021/03/27 03:55:02;;;;;;;24.20;15.88;;;;;;;3.80;70.67;101363.09;1829828;77;21423;-73
2021/03/27 03:57:36;;;;;;;23.47;14.68;;;;;;;3.81;70.72;101363.08;1830649;78;21001;-75
2021/03/27 04:00:31;;;;;;;25.92;15.13;;;;;;;3.84;70.80;101365.59;1829540;78;20922;-75
2021/03/27 04:03:47;;;;;;;24.40;16.33;;;;;;;3.88;70.82;101371.59;1831477;78;21415;-75
2021/03/27 04:06:25;;;;;;;27.27;16.97;;;;;;;3.95;70.70;101371.88;1831489;78;20938;-74
2021/03/27 04:11:40;;;;;;;28.73;16.35;;;;;;;4.05;70.77;101366.91;1813827;77;22586;-75
2021/03/27 04:14:15;;;;;;;25.30;15.63;;;;;;;4.05;70.69;101370.81;1775946;80;21344;-74
2021/03/27 04:16:44;;;;;;;;;;;;;;;4.12;70.60;101368.48;1786808;80;22205;-75
2021/03/27 04:19:17;;;;;;;28.73;16.57;;;;;;;4.18;70.65;101368.81;1756049;80;20126;-76
2021/03/27 04:22:15;;;;;;;30.13;17.73;;;;;;;4.24;70.68;101375.60;1743723;81;20958;-75
2021/03/27 04:25:23;;;;;;;30.80;18.20;;;;;;;4.32;70.63;101373.70;1753054;81;21084;-74
2021/03/27 04:27:56;;;;;;;30.97;18.90;;;;;;;4.43;70.49;101375.62;1753173;80;21348;-74
2021/03/27 04:30:46;;;;;;;41.65;20.88;;;;;;;4.58;70.23;101375.72;1753240;81;21646;-75
2021/03/27 04:33:19;;;;;;;37.65;20.68;;;;;;;4.66;69.90;101382.03;1753168;81;21033;-75
2021/03/27 04:35:57;;;;;;;35.17;19.10;;;;;;;4.69;69.76;101382.83;1754531;81;21384;-75
2021/03/27 04:38:53;;;;;;;35.43;19.05;;;;;;;4.73;69.55;101383.13;1754028;81;21033;-77
2021/03/27 04:41:45;;;;;;;30.92;16.73;;;;;;;4.77;69.45;101385.23;1753217;81;20942;-75
2021/03/27 04:44:33;;;;;;;34.18;17.57;;;;;;;4.77;69.46;101392.57;1752868;81;21440;-74
2021/03/27 04:47:15;;;;;;;35.92;17.35;;;;;;;4.81;69.35;101393.81;1752227;81;21024;-74
2021/03/27 04:50:34;;;;;;;34.60;18.17;;;;;;;4.88;69.23;101395.38;1875287;75;23384;-73
2021/03/27 04:53:16;;;;;;;33.08;17.23;;;;;;;4.88;69.19;101404.47;1844911;76;20942;-74
2021/03/27 04:56:16;;;;;;;28.90;16.23;;;;;;;4.91;69.29;101400.48;1791694;79;21355;-76
2021/03/27 04:59:27;;;;;;;29.35;16.17;;;;;;;4.95;69.32;101409.47;1789809;79;21615;-74
2021/03/27 05:02:15;;;;;;;36.45;18.02;;;;;;;5.02;69.33;101420.58;1818564;78;20922;-75
2021/03/27 05:05:10;;;;;;;25.72;14.47;;;;;;;5.08;69.14;101415.69;1784180;79;21027;-75
2021/03/27 05:07:57;;;;;;;24.20;15.30;;;;;;;5.08;69.07;101407.89;1823124;78;20950;-76
2021/03/27 05:10:42;;;;;;;18.52;12.05;;;;;;;5.11;69.00;101412.58;1790784;79;21804;-75
2021/03/27 05:13:30;;;;;;;24.23;15.40;;;;;;;5.20;68.73;101414.06;1812016;78;27347;-73
2021/03/27 05:16:36;;;;;;;20.40;14.23;;;;;;;5.25;68.66;101417.43;1814293;78;20915;-73
2021/03/27 05:19:13;;;;;;;19.52;13.80;;;;;;;5.31;68.54;101419.00;1742184;80;21007;-74
2021/03/27 05:21:50;;;;;;;19.85;13.83;;;;;;;5.32;68.41;101415.08;1823183;78;21148;-75
2021/03/27 05:25:13;;;;;;;20.40;12.40;;;;;;;5.34;68.30;101417.19;1775598;79;21845;-75
2021/03/27 05:27:58;;;;;;;18.55;13.43;;;;;;;5.39;68.23;101424.42;1808554;78;20953;-73
2021/03/27 05:31:14;;;;;;;16.48;12.05;;;;;;;5.49;68.27;101421.58;1780441;79;20959;-74
2021/03/27 05:34:10;;;;;;;20.35;12.90;;;;;;;5.55;68.17;101426.17;1808959;78;21622;-75
2021/03/27 05:36:47;;;;;;;17.30;13.53;;;;;;;5.59;68.35;101433.02;1813879;78;21499;-76
2021/03/27 05:39:41;;;;;;;22.75;14.58;;;;;;;5.64;68.11;101428.14;1822541;78;21156;-76
2021/03/27 05:42:20;;;;;;;23.98;13.30;;;;;;;5.69;68.14;101429.74;1773050;79;21385;-75
2021/03/27 05:45:20;;;;;;;23.80;14.60;;;;;;;5.76;67.67;101429.98;1815406;78;20957;-75
2021/03/27 05:48:38;;;;;;;17.15;13.10;;;;;;;5.83;67.62;101436.33;1791763;79;20989;-74
2021/03/27 05:51:44;;;;;;;19.17;12.68;;;;;;;5.83;67.62;101442.83;1780648;78;21563;-75
2021/03/27 05:54:18;;;;;;;19.50;12.37;;;;;;;5.79;67.66;101442.89;1790780;79;21595;-74
2021/03/27 05:57:11;;;;;;;19.20;12.80;;;;;;;5.78;67.74;101443.80;1817638;78;20957;-74
2021/03/27 06:00:14;;;;;;;19.57;13.70;;;;;;;5.77;67.73;101441.23;1791454;79;21118;-74
2021/03/27 06:03:14;;;;;;;20.50;12.60;;;;;;;5.73;67.67;101443.50;1798505;78;20994;-75
2021/03/27 06:06:28;;;;;;;15.32;12.30;;;;;;;5.73;67.93;101448.25;1790186;79;20967;-76
2021/03/27 06:09:18;;;;;;;26.50;15.38;;;;;;;5.74;68.05;101447.37;1820169;78;20895;-75
2021/03/27 06:12:19;;;;;;;20.08;13.00;;;;;;;5.80;68.00;101450.25;1785158;79;20999;-75
2021/03/27 06:15:17;;;;;;;19.55;13.48;;;;;;;5.85;67.91;101451.42;1812768;78;20958;-75
2021/03/27 06:18:09;;;;;;;18.95;12.85;;;;;;;5.90;67.67;101462.59;1790128;79;20983;-76
2021/03/27 06:21:22;;;;;;;19.67;15.60;;;;;;;5.90;67.60;101459.98;1815789;78;20951;-75
2021/03/27 06:24:15;;;;;;;18.20;14.43;;;;;;;5.88;67.84;101453.96;1787262;80;22349;-76
2021/03/27 06:27:12;;;;;;;20.48;13.45;;;;;;;5.92;67.62;101463.41;1816750;78;20954;-77
2021/03/27 06:30:14;;;;;;;17.95;12.65;;;;;;;5.95;67.65;101462.88;1772762;79;21365;-75
2021/03/27 06:33:02;;;;;;;19.48;13.25;;;;;;;5.98;67.76;101461.94;1819187;78;20891;-76
2021/03/27 06:36:08;;;;;;;16.27;13.05;;;;;;;5.98;67.67;101468.03;1778111;79;21137;-76
2021/03/27 06:39:15;;;;;;;17.15;13.22;;;;;;;6.00;67.84;101470.14;1782884;79;21197;-76
2021/03/27 06:42:21;;;;;;;20.72;12.82;;;;;;;6.04;67.48;101465.69;1818699;78;20930;-76
2021/03/27 06:45:15;;;;;;;20.88;13.88;;;;;;;6.07;67.69;101475.16;1787285;79;21354;-74
2021/03/27 06:48:32;;;;;;;20.92;13.65;;;;;;;6.16;67.59;101472.33;1775609;79;21504;-75
2021/03/27 06:51:34;;;;;;;21.17;13.32;;;;;;;6.26;67.35;101472.45;1794279;80;20946;-75
2021/03/27 06:54:11;;;;;;;22.73;12.50;;;;;;;6.38;67.27;101481.23;1790106;79;21815;-74
2021/03/27 06:57:17;;;;;;;19.42;12.40;;;;;;;6.42;66.73;101471.56;1817703;78;21609;-77
2021/03/27 07:00:22;;;;;;;17.98;13.20;;;;;;;6.47;66.60;101478.82;1791237;79;21021;-76
2021/03/27 07:03:27;;;;;;;16.23;12.25;;;;;;;6.51;66.48;101475.20;1772417;79;20966;-76
2021/03/27 07:06:27;;;;;;;16.65;13.08;;;;;;;6.55;66.28;101472.06;1770741;79;20986;-77
2021/03/27 07:09:37;;;;;;;16.80;12.68;;;;;;;6.58;66.43;101480.66;1792206;79;21362;-76
2021/03/27 07:12:29;;;;;;;22.90;13.03;;;;;;;6.64;66.37;101467.42;1798794;79;21065;-76
2021/03/27 07:15:34;;;;;;;19.32;13.48;;;;;;;6.72;66.22;101485.91;1783397;79;21034;-74
2021/03/27 07:18:12;;;;;;;;;;;;;;;6.77;66.11;101478.34;1793502;79;21384;-75
2021/03/27 07:20:47;;;;;;;17.17;12.28;;;;;;;6.85;66.25;101479.42;1822680;78;20156;-76
2021/03/27 07:23:55;;;;;;;18.10;13.58;;;;;;;6.94;66.21;101479.14;1779463;79;22290;-77
2021/03/27 07:26:49;;;;;;;18.85;12.82;;;;;;;7.11;65.89;101481.66;1781048;80;21595;-75
2021/03/27 07:29:50;;;;;;;17.87;13.38;;;;;;;7.32;65.42;101490.11;1783101;79;21037;-80
2021/03/27 07:32:47;;;;;;;18.87;13.05;;;;;;;7.50;64.73;101490.41;1787308;79;20965;-80
2021/03/27 07:35:56;;;;;;;17.82;11.95;;;;;;;7.67;64.08;101495.93;1779310;79;21069;-77
2021/03/27 07:38:50;;;;;;;16.75;12.78;;;;;;;7.82;63.61;101492.77;1784305;79;22385;-78
2021/03/27 07:41:54;;;;;;;16.55;12.47;;;;;;;7.96;62.92;101491.44;1713957;82;21495;-76
2021/03/27 07:44:59;;;;;;;16.00;11.75;;;;;;;8.03;62.54;101496.41;1768175;80;20959;-76
2021/03/27 07:47:59;;;;;;;17.15;12.50;;;;;;;8.08;62.53;101501.01;1766271;80;21066;-76
2021/03/27 07:51:19;;;;;;;15.93;12.55;;;;;;;8.12;62.38;101504.37;1764177;80;20974;-75
2021/03/27 07:54:15;;;;;;;19.25;13.13;;;;;;;8.16;62.30;101500.75;1760612;80;22386;-75
2021/03/27 07:57:10;;;;;;;19.30;14.23;;;;;;;8.19;62.67;101499.33;1717352;83;21005;-75
2021/03/27 08:00:02;;;;;;;22.90;15.03;;;;;;;8.26;62.78;101499.95;1723951;82;20979;-78
2021/03/27 08:03:10;;;;;;;21.20;13.98;;;;;;;8.29;62.11;101505.94;1771854;80;20938;-77
2021/03/27 08:05:52;;;;;;;22.62;15.10;;;;;;;8.29;62.13;101505.06;1767806;80;21017;-76
2021/03/27 08:08:58;;;;;;;20.40;13.85;;;;;;;8.42;61.45;101504.20;1890075;75;23176;-78
2021/03/27 08:12:01;;;;;;;20.60;14.30;;;;;;;8.46;61.74;101514.94;1861557;77;21467;-79
2021/03/27 08:15:00;;;;;;;18.30;13.60;;;;;;;8.52;61.37;101515.19;1860992;77;21800;-77
2021/03/27 08:17:56;;;;;;;20.35;13.05;;;;;;;8.58;61.14;101511.89;1860945;77;20954;-76
2021/03/27 08:21:17;;;;;;;19.73;14.03;;;;;;;8.63;60.80;101520.41;1861347;77;20977;-77
2021/03/27 08:24:16;;;;;;;18.85;13.83;;;;;;;8.71;60.96;101524.91;1863273;77;20938;-75
2021/03/27 08:27:31;;;;;;;18.57;14.18;;;;;;;8.81;60.48;101522.78;1860632;77;20993;-77
2021/03/27 08:30:33;;;;;;;20.50;15.30;;;;;;;8.91;60.29;101523.27;1861112;77;21443;-77
2021/03/27 08:33:33;;;;;;;23.27;14.93;;;;;;;9.02;60.51;101512.39;1860989;77;20985;-80
2021/03/27 08:36:47;;;;;;;17.82;13.83;;;;;;;9.20;59.74;101510.34;1860926;77;20997;-78
2021/03/27 08:39:46;;;;;;;23.70;13.53;;;;;;;9.42;59.25;101504.25;1861193;77;20890;-78
2021/03/27 08:42:29;;;;;;;21.57;13.22;;;;;;;9.67;59.01;101507.58;1825237;76;21129;-77
2021/03/27 08:45:21;;;;;;;18.05;12.60;;;;;;;9.92;58.21;101503.45;1857898;77;21643;-90
2021/03/27 08:47:59;;;;;;;18.82;13.43;;;;;;;10.14;57.82;101513.01;1861115;77;21321;-84
2021/03/27 08:50:59;;;;;;;20.50;12.98;;;;;;;10.34;57.22;101509.07;1861015;77;20997;-81
2021/03/27 08:53:44;;;;;;;17.98;12.78;;;;;;;10.56;57.10;101510.27;1842974;77;20930;-79
2021/03/27 08:56:52;;;;;;;15.32;12.23;;;;;;;10.81;56.36;101510.91;1830742;77;21491;-83
2021/03/27 08:59:49;;;;;;;18.57;12.68;;;;;;;10.98;55.72;101502.62;1861014;77;21383;-78
2021/03/27 09:02:50;;;;;;;17.25;12.13;;;;;;;11.20;54.84;101510.33;1860974;77;20953;-81
2021/03/27 09:05:47;;;;;;;16.50;13.45;;;;;;;11.38;53.84;101502.02;1861137;77;20926;-81
2021/03/27 09:08:44;;;;;;;14.47;12.55;;;;;;;11.54;53.45;101505.20;1859222;76;20934;-77
2021/03/27 09:11:26;;;;;;;17.12;12.40;;;;;;;11.67;53.20;101506.29;1858973;77;20950;-79
2021/03/27 09:14:03;;;;;;;18.87;13.10;;;;;;;11.81;53.19;101508.21;1858934;77;21357;-79
2021/03/27 09:17:10;;;;;;;16.50;12.18;;;;;;;11.95;52.79;101511.00;1859127;76;21009;-78
2021/03/27 09:19:58;;;;;;;15.58;11.48;;;;;;;12.13;51.91;101514.92;1858427;77;20923;-82
2021/03/27 09:22:47;;;;;;;13.48;12.07;;;;;;;12.28;51.59;101512.81;1858294;77;20918;-84
2021/03/27 09:25:54;;;;;;;14.63;11.63;;;;;;;12.42;50.57;101510.28;1858491;77;20997;-82
2021/03/27 09:28:38;;;;;;;17.95;13.40;;;;;;;12.57;50.06;101512.56;1850053;77;21189;-80
2021/03/27 09:31:53;;;;;;;22.17;13.78;;;;;;;12.67;50.13;101513.38;1858196;77;20915;-78
2021/03/27 09:34:43;;;;;;;22.15;13.62;;;;;;;12.78;49.47;101518.45;1858251;77;20970;-79
2021/03/27 09:37:50;;;;;;;15.30;13.70;;;;;;;12.93;48.74;101515.42;1858630;77;21017;-80
2021/03/27 09:40:59;;;;;;;17.80;13.13;;;;;;;12.97;48.97;101513.48;1858165;77;20926;-72
2021/03/27 09:44:08;;;;;;;15.90;13.65;;;;;;;13.10;49.16;101513.66;1858157;77;21245;-73
2021/03/27 09:47:04;;;;;;;28.75;12.58;;;;;;;13.31;48.80;101511.61;1858097;77;20981;-74
2021/03/27 09:50:03;;;;;;;19.77;12.47;;;;;;;13.52;47.97;101516.09;1858064;77;21120;-71
2021/03/27 09:52:46;;;;;;;14.18;11.97;;;;;;;13.74;48.11;101513.05;1858029;77;21001;-72
2021/03/27 09:55:49;;;;;;;17.33;12.23;;;;;;;13.93;47.62;101507.55;1858503;77;20934;-72
2021/03/27 09:58:49;;;;;;;14.87;10.85;;;;;;;14.19;46.91;101514.74;1858191;77;21193;-74
2021/03/27 10:01:41;;;;;;;12.60;10.88;;;;;;;14.40;45.21;101515.20;1858128;77;20938;-74
2021/03/27 10:04:17;;;;;;;14.80;12.60;;;;;;;14.50;44.49;101511.06;1858244;76;21061;-75
2021/03/27 10:06:53;;;;;;;15.30;11.70;;;;;;;14.61;44.42;101518.34;1858064;76;20934;-75
2021/03/27 10:09:57;;;;;;;15.50;11.05;;;;;;;14.61;44.92;101518.83;1860151;77;21021;-75
2021/03/27 10:12:39;;;;;;;13.28;9.90;;;;;;;14.63;44.59;101520.88;1860238;77;22431;-72
2021/03/27 10:15:31;;;;;;;14.73;11.95;;;;;;;14.61;42.88;101513.06;1860082;77;20941;-72
2021/03/27 10:18:08;;;;;;;13.48;10.98;;;;;;;14.48;43.12;101520.86;1860303;77;21356;-74
2021/03/27 10:20:44;;;;;;;14.65;11.03;;;;;;;14.41;43.63;101512.95;1860188;77;20902;-74
2021/03/27 10:23:35;;;;;;;14.23;11.00;;;;;;;14.56;43.41;101515.13;1860308;77;21375;-74
2021/03/27 10:26:24;;;;;;;15.50;8.83;;;;;;;14.76;42.92;101513.88;1859521;77;21463;-77
2021/03/27 10:29:10;;;;;;;12.28;9.45;;;;;;;14.96;42.73;101511.28;1860205;77;20982;-77
2021/03/27 10:31:43;;;;;;;11.40;9.45;;;;;;;15.15;41.18;101508.80;1860291;77;20971;-78
2021/03/27 10:34:23;;;;;;;13.05;9.40;;;;;;;15.15;41.18;101508.80;1860571;77;21566;-78
2021/03/27 10:37:21;;;;;;;10.28;9.28;;;;;;;15.24;41.51;101513.48;1860058;77;21479;-78
2021/03/27 10:40:24;;;;;;;10.78;9.40;;;;;;;15.49;41.31;101506.93;1860413;77;21194;-79
2021/03/27 10:43:15;;;;;;;12.55;8.93;;;;;;;15.80;40.29;101511.52;1860126;77;21498;-73
2021/03/27 10:46:20;;;;;;;11.70;8.50;;;;;;;15.93;39.73;101505.77;1828110;77;20970;-73
2021/03/27 10:49:09;;;;;;;11.63;8.70;;;;;;;15.98;39.49;101498.00;1860163;77;20941;-77
2021/03/27 10:52:16;;;;;;;10.70;9.30;;;;;;;16.20;39.30;101509.27;1860230;77;20989;-76
2021/03/27 10:55:23;;;;;;;9.73;7.58;;;;;;;16.53;38.35;101506.05;1860261;77;21427;-77
2021/03/27 10:58:17;;;;;;;8.00;7.10;;;;;;;16.91;36.88;101502.00;1860237;77;21061;-76
2021/03/27 11:01:14;;;;;;;7.30;6.55;;;;;;;17.27;35.98;101504.23;1860202;77;20919;-76
2021/03/27 11:04:05;;;;;;;6.75;6.08;;;;;;;17.49;35.54;101502.64;1860100;77;20985;-78
2021/03/27 11:07:17;;;;;;;8.75;7.05;;;;;;;17.79;35.68;101499.48;1860202;77;21428;-77
2021/03/27 11:10:20;;;;;;;11.85;8.05;;;;;;;18.06;35.10;101506.31;1860290;77;20926;-76
2021/03/27 11:13:15;;;;;;;7.80;6.45;;;;;;;18.03;34.23;101507.41;1859882;77;21073;-77
2021/03/27 11:16:21;;;;;;;6.35;5.62;;;;;;;17.92;34.52;101502.92;1860109;77;20993;-76
2021/03/27 11:19:33;;;;;;;8.18;6.53;;;;;;;17.93;35.81;101509.06;1860136;77;21036;-77
2021/03/27 11:22:38;;;;;;;8.13;5.97;;;;;;;17.99;34.41;101507.27;1860250;77;21416;-78
2021/03/27 11:25:24;;;;;;;9.15;6.58;;;;;;;17.68;34.80;101511.39;1860376;77;21456;-77
2021/03/27 11:28:30;;;;;;;8.35;7.40;;;;;;;17.60;34.87;101506.65;1860100;77;21010;-79
2021/03/27 11:31:25;;;;;;;7.03;6.33;;;;;;;17.29;35.49;101508.10;1860230;77;20934;-77
2021/03/27 11:34:04;;;;;;;5.53;4.90;;;;;;;17.17;36.48;101508.54;1860148;77;21424;-72
2021/03/27 11:36:41;;;;;;;8.25;6.03;;;;;;;17.22;36.05;101502.90;1860083;77;21017;-75
2021/03/27 11:39:24;;;;;;;7.05;5.67;;;;;;;17.25;35.62;101507.95;1860106;77;21907;-74
2021/03/27 11:42:03;;;;;;;6.50;5.30;;;;;;;17.31;35.70;101501.72;1859999;77;20946;-74
2021/03/27 11:45:09;;;;;;;7.80;5.33;;;;;;;17.11;35.96;101511.14;1860236;77;21415;-72
2021/03/27 11:48:14;;;;;;;7.43;5.43;;;;;;;16.86;35.87;101511.26;1860340;77;20934;-73
2021/03/27 11:51:04;;;;;;;7.85;5.60;;;;;;;16.41;36.41;101501.16;1860177;77;20945;-72
2021/03/27 11:53:57;;;;;;;9.95;6.85;;;;;;;15.72;37.42;101508.57;1859837;77;22183;-73
2021/03/27 11:56:55;;;;;;;7.67;6.08;;;;;;;14.69;38.75;101514.73;1860074;77;20958;-78
2021/03/27 12:03:14;;;;;;;9.53;5.80;;;;;;;14.25;39.76;101513.05;1788061;80;21368;-74
2021/03/27 12:06:32;;;;;;;7.03;5.80;;;;;;;13.76;40.80;101516.01;1847833;76;22746;-75
2021/03/27 12:09:30;;;;;;;6.33;5.50;;;;;;;13.56;41.41;101516.30;1858546;77;20911;-73
2021/03/27 12:12:29;;;;;;;8.48;5.42;;;;;;;13.53;41.75;101516.49;1857883;77;21377;-78
2021/03/27 12:15:00;;;;;;;6.58;4.72;;;;;;;13.41;41.58;101516.74;1858465;77;21120;-74
2021/03/27 12:17:48;;;;;;;7.60;4.58;;;;;;;13.26;41.76;101511.84;1824704;77;21309;-75
2021/03/27 12:20:33;;;;;;;6.47;4.53;;;;;;;13.04;41.76;101510.41;1858308;77;20911;-76
2021/03/27 12:23:18;;;;;;;6.58;5.12;;;;;;;12.85;42.99;101518.50;1858500;77;20930;-76
2021/03/27 12:26:12;;;;;;;7.42;5.33;;;;;;;12.87;43.15;101523.66;1858590;77;21354;-76
2021/03/27 12:29:02;;;;;;;6.78;4.47;;;;;;;12.96;43.34;101511.77;1858592;77;21523;-77
2021/03/27 12:32:06;;;;;;;8.70;5.15;;;;;;;13.04;42.66;101517.47;1858557;77;21325;-76
2021/03/27 12:34:56;;;;;;;6.37;4.37;;;;;;;13.12;42.53;101516.58;1858517;77;20978;-76
2021/03/27 12:37:41;;;;;;;13.20;5.20;;;;;;;13.30;42.67;101513.88;1808284;77;21432;-75
2021/03/27 12:40:36;;;;;;;10.00;4.67;;;;;;;13.48;42.83;101508.86;1858012;77;21456;-76
2021/03/27 12:43:14;;;;;;;6.97;4.60;;;;;;;13.68;42.26;101512.48;1858817;77;23035;-75
2021/03/27 12:45:48;;;;;;;7.55;4.35;;;;;;;13.84;42.41;101512.91;1858593;77;21065;-76
2021/03/27 12:48:47;;;;;;;7.70;4.62;;;;;;;13.95;42.05;101514.91;1858885;77;21005;-78
2021/03/27 12:51:42;;;;;;;5.72;3.92;;;;;;;13.97;42.52;101513.88;1858536;77;20962;-77
2021/03/27 12:54:32;;;;;;;;;;;;;;;14.00;40.19;101514.99;1861287;77;21367;-77
2021/03/27 12:57:36;;;;;;;7.65;3.65;;;;;;;13.99;40.54;101511.15;1858554;77;20589;-73
2021/03/27 13:00:37;;;;;;;4.37;3.05;;;;;;;13.97;40.19;101511.23;1858398;77;20999;-74
2021/03/27 13:03:17;;;;;;;5.08;3.45;;;;;;;13.94;40.24;101515.38;1858367;77;20922;-77
2021/03/27 13:05:53;;;;;;;4.70;3.67;;;;;;;13.89;40.25;101515.66;1858455;77;20978;-73
2021/03/27 13:08:38;;;;;;;5.12;3.37;;;;;;;13.91;40.19;101517.34;1794484;78;21373;-73
2021/03/27 13:11:42;;;;;;;7.08;3.80;;;;;;;13.96;40.73;101512.63;1845911;76;22657;-73
2021/03/27 13:15:03;;;;;;;5.70;3.55;;;;;;;13.91;41.16;101520.82;1817851;79;21014;-74
2021/03/27 13:18:25;;;;;;;5.40;3.62;;;;;;;13.87;41.11;101513.58;1817916;77;21402;-72
2021/03/27 13:21:30;;;;;;;10.23;4.35;;;;;;;13.82;41.58;101520.89;1817547;79;21045;-73